Stormwatcher's Retreat Logo




                  Temp     Hi    Low   Out    Dew  Wind  Wind   Wind    Hi    Hi   Wind   Heat    THW   THSW                Rain  Solar   Solar Hi Solar   UV    UV    Hi     Heat    Cool    In     In    In     In     In   In Air          Wind  Wind    ISS   Arc.
  Date    Time     Out   Temp   Temp   Hum    Pt. Speed   Dir    Run Speed   Dir  Chill  Index  Index  Index   Bar    Rain  Rate   Rad.  Energy    Rad.  Index  Dose   UV     D-D     D-D    Temp   Hum    Dew   Heat    EMC Density     ET   Samp   Tx   Recept  Int.
------------------------------------------------------------------------------------------------------------------------------------------------------------------------------------------------------------------------------------------------------------------------
 2/20/19 12:10a   46.5   46.8   46.5    79   40.3  16.0     N   2.67  26.0     N   38.9   46.3   38.7   36.2  30.006  0.00  0.00     0     0.00      0     0.0  0.00   0.0   0.128   0.000   68.0    43   44.7   66.0   8.25  .0747    0.000   212    5    100.0   10 
 2/20/19 12:20a   46.9   46.9   46.5    76   39.7  17.0     N   2.83  24.0   NNW   39.1   46.6   38.8   36.3  30.007  0.00  0.00     0     0.00      0     0.0  0.00   0.0   0.126   0.000   68.0    43   44.7   66.0   8.25  .0747    0.000   214    5    100.0   10 
 2/20/19 12:30a   46.9   47.0   46.8    73   38.7  21.0     N   3.50  28.0     N   38.1   46.5   37.7   35.4  30.006  0.00  0.00     0     0.00      0     0.0  0.00   0.0   0.126   0.000   68.0    43   44.7   66.0   8.25  .0747    0.000   212    5    100.0   10 
 2/20/19 12:40a   46.8   46.9   46.8    72   38.2  17.0     N   2.83  23.0     N   39.0   46.4   38.6   36.1  30.005  0.00  0.00     0     0.00      0     0.0  0.00   0.0   0.126   0.000   68.1    43   44.7   66.1   8.25  .0747    0.000   212    5    100.0   10 
 2/20/19 12:50a   47.0   47.0   46.8    72   38.4  15.0     N   2.50  20.0     N   39.8   46.6   39.4   36.7  30.000  0.00  0.00     0     0.00      0     0.0  0.00   0.0   0.125   0.000   68.1    43   44.7   66.1   8.25  .0746    0.000   214    5    100.0   10 
 2/20/19  1:00a   46.6   47.2   46.6    75   39.1  13.0     N   2.17  21.0     N   40.0   46.3   39.7   36.8  30.001  0.00  0.00     0     0.00      0     0.0  0.00   0.0   0.128   0.000   68.1    43   44.7   66.1   8.25  .0746    0.002   210    5    100.0   10 
 2/20/19  1:10a   46.9   46.9   46.3    74   39.0  13.0     N   2.17  20.0     N   40.4   46.6   40.1   37.2  29.996  0.00  0.00     0     0.00      0     0.0  0.00   0.0   0.126   0.000   68.1    43   44.7   66.1   8.25  .0746    0.000   212    5    100.0   10 
 2/20/19  1:20a   46.3   47.2   46.3    74   38.5  15.0   NNE   2.50  26.0    NE   39.0   45.9   38.6   35.9  29.994  0.00  0.00     0     0.00      0     0.0  0.00   0.0   0.130   0.000   68.1    43   44.7   66.1   8.25  .0746    0.000   212    5    100.0   10 
 2/20/19  1:30a   45.0   46.3   44.9    77   38.2  16.0     N   2.67  25.0   NNE   37.2   44.7   36.9   34.3  30.001  0.00  0.00     0     0.00      0     0.0  0.00   0.0   0.139   0.000   68.0    43   44.7   66.0   8.25  .0747    0.000   212    5    100.0   10 
 2/20/19  1:40a   45.7   45.7   45.0    75   38.2  16.0     N   2.67  25.0     N   38.0   45.3   37.6   35.0  30.003  0.00  0.00     0     0.00      0     0.0  0.00   0.0   0.134   0.000   68.0    43   44.7   66.0   8.25  .0747    0.000   211    5    100.0   10 
 2/20/19  1:50a   46.3   46.3   45.7    75   38.8  17.0     N   2.83  25.0     N   38.4   45.9   38.0   35.5  30.006  0.00  0.00     0     0.00      0     0.0  0.00   0.0   0.130   0.000   68.0    43   44.7   66.0   8.25  .0747    0.000   213    5    100.0   10 
 2/20/19  2:00a   45.2   46.3   45.1    74   37.4  13.0     N   2.17  24.0     N   38.4   44.8   38.0   35.1  30.001  0.00  0.00     0     0.00      0     0.0  0.00   0.0   0.137   0.000   68.0    43   44.7   66.0   8.25  .0747    0.002   213    5    100.0   10 
 2/20/19  2:10a   45.9   46.0   45.3    74   38.1  12.0     N   2.00  19.0     N   39.6   45.5   39.2   36.2  29.997  0.00  0.00     0     0.00      0     0.0  0.00   0.0   0.133   0.000   68.0    43   44.7   66.0   8.25  .0747    0.000   213    5    100.0   10 
 2/20/19  2:20a   45.9   45.9   45.8    74   38.1  10.0     N   1.67  19.0     N   40.5   45.5   40.1   36.9  29.994  0.00  0.00     0     0.00      0     0.0  0.00   0.0   0.133   0.000   68.0    43   44.7   66.0   8.25  .0746    0.000   211    5    100.0   10 
 2/20/19  2:30a   46.2   46.5   45.9    74   38.4  18.0     N   3.00  28.0     N   38.0   45.8   37.6   35.1  29.995  0.00  0.00     0     0.00      0     0.0  0.00   0.0   0.131   0.000   68.0    43   44.7   66.0   8.25  .0746    0.000   211    5    100.0   10 
 2/20/19  2:40a   46.1   46.1   46.0    72   37.6  18.0     N   3.00  26.0   NNW   37.9   45.6   37.4   34.9  29.994  0.00  0.00     0     0.00      0     0.0  0.00   0.0   0.131   0.000   68.0    43   44.7   66.0   8.25  .0746    0.000   210    5    100.0   10 
 2/20/19  2:50a   46.1   46.1   46.0    70   36.9  15.0     N   2.50  23.0     N   38.7   45.6   38.2   35.4  29.991  0.00  0.00     0     0.00      0     0.0  0.00   0.0   0.131   0.000   68.0    43   44.7   66.0   8.25  .0746    0.000   211    5    100.0   10 
 2/20/19  3:00a   46.0   46.2   46.0    71   37.1  13.0     N   2.17  19.0    NE   39.3   45.5   38.8   35.9  29.993  0.00  0.00     0     0.00      0     0.0  0.00   0.0   0.132   0.000   68.0    43   44.7   66.0   8.25  .0746    0.002   212    5    100.0   10 
 2/20/19  3:10a   46.0   46.3   46.0    71   37.1  15.0     N   2.50  28.0   NNE   38.6   45.5   38.1   35.4  29.996  0.00  0.00     0     0.00      0     0.0  0.00   0.0   0.132   0.000   68.0    43   44.7   66.0   8.25  .0747    0.000   212    5    100.0   10 
 2/20/19  3:20a   43.6   45.9   43.6    78   37.2  14.0   NNE   2.33  26.0     N   36.3   43.3   36.0   33.2  29.995  0.01  0.00     0     0.00      0     0.0  0.00   0.0   0.149   0.000   68.0    43   44.7   66.0   8.25  .0746    0.000   211    5    100.0   10 
 2/20/19  3:30a   44.5   44.5   43.6    79   38.4  11.0     N   1.83  18.0     N   38.4   44.3   38.2   35.1  29.993  0.00  0.00     0     0.00      0     0.0  0.00   0.0   0.142   0.000   68.0    43   44.7   66.0   8.25  .0746    0.000   212    5    100.0   10 
 2/20/19  3:40a   45.3   45.3   44.5    76   38.2  14.0     N   2.33  19.0   NNE   38.2   44.9   37.8   35.0  29.985  0.00  0.00     0     0.00      0     0.0  0.00   0.0   0.137   0.000   68.0    43   44.7   66.0   8.25  .0746    0.000   210    5    100.0   10 
 2/20/19  3:50a   45.6   45.6   45.3    76   38.5  12.0     N   2.00  18.0     N   39.3   45.2   38.9   35.9  29.978  0.00  0.00     0     0.00      0     0.0  0.00   0.0   0.135   0.000   68.0    43   44.7   66.0   8.25  .0746    0.000   211    5    100.0   10 
 2/20/19  4:00a   44.9   45.8   44.9    77   38.1  15.0     N   2.50  24.0     N   37.4   44.6   37.1   34.4  29.979  0.00  0.00     0     0.00      0     0.0  0.00   0.0   0.140   0.000   68.0    43   44.7   66.0   8.25  .0746    0.002   211    5    100.0   10 
 2/20/19  4:10a   45.2   45.2   44.9    77   38.4  11.0     N   1.83  16.0   NNE   39.2   44.9   38.9   35.8  29.977  0.00  0.00     0     0.00      0     0.0  0.00   0.0   0.137   0.000   68.0    43   44.7   66.0   8.25  .0746    0.000   212    5    100.0   10 
 2/20/19  4:20a   45.9   45.9   45.2    76   38.8  13.0     N   2.17  18.0     N   39.2   45.5   38.8   35.9  29.972  0.00  0.00     0     0.00      0     0.0  0.00   0.0   0.133   0.000   68.0    43   44.7   66.0   8.25  .0746    0.000   213    5    100.0   10 
 2/20/19  4:30a   46.0   46.1   45.9    75   38.5  12.0     N   2.00  19.0     N   39.7   45.6   39.3   36.3  29.969  0.00  0.00     0     0.00      0     0.0  0.00   0.0   0.132   0.000   67.9    43   44.6   65.8   8.25  .0746    0.000   211    5    100.0   10 
 2/20/19  4:40a   46.2   46.2   46.0    75   38.7   9.0     N   1.50  14.0    NW   41.4   45.8   41.0   37.7  29.965  0.00  0.00     0     0.00      0     0.0  0.00   0.0   0.131   0.000   67.9    43   44.6   65.8   8.25  .0746    0.000   212    5    100.0   10 
 2/20/19  4:50a   46.6   46.6   46.2    72   38.1  13.0     N   2.17  19.0     N   40.0   46.2   39.6   36.7  29.960  0.00  0.00     0     0.00      0     0.0  0.00   0.0   0.128   0.000   67.9    43   44.6   65.8   8.25  .0746    0.000   211    5    100.0   10 
 2/20/19  5:00a   46.8   46.8   46.6    70   37.5  15.0     N   2.50  21.0     N   39.6   46.3   39.1   36.4  29.960  0.00  0.00     0     0.00      0     0.0  0.00   0.0   0.126   0.000   67.9    43   44.6   65.8   8.25  .0746    0.002   211    5    100.0   10 
 2/20/19  5:10a   46.4   46.9   46.4    73   38.2  16.0     N   2.67  23.0   NNW   38.8   46.0   38.4   35.8  29.961  0.00  0.00     0     0.00      0     0.0  0.00   0.0   0.129   0.000   67.9    43   44.6   65.8   8.25  .0746    0.000   211    5    100.0   10 
 2/20/19  5:20a   45.8   46.4   45.8    71   36.9  14.0     N   2.33  23.0   NNW   38.8   45.3   38.3   35.5  29.964  0.00  0.00     0     0.00      0     0.0  0.00   0.0   0.133   0.000   67.9    43   44.6   65.8   8.25  .0746    0.000   213    5    100.0   10 
 2/20/19  5:30a   46.3   46.3   45.7    73   38.1  13.0     N   2.17  19.0   NNW   39.7   45.9   39.3   36.4  29.957  0.00  0.00     0     0.00      0     0.0  0.00   0.0   0.130   0.000   67.9    43   44.6   65.8   8.25  .0746    0.000   211    5    100.0   10 
 2/20/19  5:40a   44.4   46.6   44.4    76   37.3  12.0     N   2.00  22.0   NNW   37.9   44.0   37.5   34.5  29.959  0.03  0.64     0     0.00      0     0.0  0.00   0.0   0.143   0.000   67.8    43   44.5   65.7   8.25  .0746    0.000   210    5    100.0   10 
 2/20/19  5:50a   44.0   44.4   43.7    79   37.9  13.0     N   2.17  22.0     N   37.0   43.8   36.8   33.9  29.962  0.04  0.55     0     0.00      0     0.0  0.00   0.0   0.146   0.000   67.9    43   44.6   65.8   8.25  .0746    0.000   213    5    100.0   10 
 2/20/19  6:00a   43.3   44.0   43.3    79   37.2  11.0    NE   1.83  19.0   NNE   37.0   43.0   36.7   33.6  29.963  0.00  0.05     0     0.00      0     0.0  0.00   0.0   0.151   0.000   67.8    43   44.5   65.7   8.25  .0746    0.002   212    5    100.0   10 
 2/20/19  6:10a   44.5   44.5   43.3    80   38.7  11.0   NNE   1.83  19.0     N   38.4   44.3   38.2   35.1  29.963  0.00  0.00     0     0.00      0     0.0  0.00   0.0   0.142   0.000   67.9    43   44.6   65.8   8.25  .0746    0.000   211    5    100.0   10 
 2/20/19  6:20a   45.0   45.0   44.6    78   38.6  12.0     N   2.00  21.0   NNW   38.6   44.7   38.3   35.3  29.959  0.00  0.00     0     0.00      0     0.0  0.00   0.0   0.139   0.000   67.8    43   44.5   65.7   8.25  .0746    0.000   212    5    100.0   10 
 2/20/19  6:30a   45.0   45.2   45.0    77   38.2   9.0   NNE   1.50  15.0    NW   40.0   44.7   39.7   36.4  29.960  0.00  0.00     0     0.00      0     0.0  0.00   0.0   0.139   0.000   67.8    43   44.5   65.7   8.25  .0746    0.000   210    5    100.0   10 
 2/20/19  6:40a   45.9   45.9   45.0    77   39.1   9.0     N   1.50  14.0     N   41.1   45.6   40.8   37.5  29.952  0.00  0.00     0     0.00      0     0.0  0.00   0.0   0.133   0.000   67.8    43   44.5   65.7   8.25  .0746    0.000   209    5    100.0   10 
 2/20/19  6:50a   44.6   46.1   44.6    77   37.8  12.0    NW   2.00  20.0   WNW   38.1   44.3   37.8   34.8  29.954  0.00  0.00     0     0.00      0     0.0  0.00   0.0   0.142   0.000   67.8    43   44.5   65.7   8.25  .0746    0.000   213    5    100.0   10 
 2/20/19  7:00a   45.2   45.6   44.6    76   38.1  15.0     N   2.50  26.0   NNW   37.7   44.8   37.3   34.6  29.960  0.00  0.00     0     0.00      0     0.0  0.00   0.0   0.137   0.000   67.8    43   44.5   65.7   8.25  .0746    0.002   212    5    100.0   10 
 2/20/19  7:10a   43.4   45.2   43.4    77   36.7  15.0    NE   2.50  25.0     N   35.7   43.1   35.4   32.6  29.960  0.00  0.00     0     0.00      0     0.0  0.00   0.0   0.150   0.000   67.8    43   44.5   65.7   8.25  .0746    0.000   210    5    100.0   10 
 2/20/19  7:20a   43.5   43.5   43.3    79   37.4   6.0     N   1.00  15.0   NNW   39.9   43.2   39.6   36.1  29.953  0.00  0.00     5     0.07      9     0.0  0.00   0.0   0.149   0.000   67.8    43   44.5   65.7   8.25  .0746    0.000   211    5    100.0   10 
 2/20/19  7:30a   44.4   44.4   43.5    79   38.3   7.0     N   1.17  13.0     N   40.5   44.2   40.3   37.0  29.957  0.00  0.00    13     0.19     18     0.0  0.00   0.0   0.143   0.000   67.8    43   44.5   65.7   8.25  .0746    0.000   209    5    100.0   10 
 2/20/19  7:40a   44.9   44.9   44.4    79   38.8   4.0   NNW   0.67   8.0   NNE   43.0   44.7   42.8   40.0  29.952  0.00  0.00    38     0.54     65     0.0  0.00   0.0   0.140   0.000   67.8    43   44.5   65.7   8.25  .0746    0.000   212    5    100.0   10 
 2/20/19  7:50a   45.3   45.4   44.9    78   38.8   8.0     N   1.33  18.0   NNE   41.0   45.0   40.7   38.0  29.949  0.01  0.00    33     0.47     67     0.0  0.00   0.0   0.137   0.000   67.8    43   44.5   65.7   8.25  .0746    0.000   214    5    100.0   10 
 2/20/19  8:00a   45.6   45.6   45.2    75   38.1  10.0     N   1.67  18.0    NW   40.2   45.2   39.8   37.2  29.949  0.00  0.00    31     0.44     49     0.0  0.00   0.0   0.135   0.000   67.8    43   44.5   65.7   8.25  .0746    0.001   212    5    100.0   10 
 2/20/19  8:10a   45.5   46.2   45.5    75   38.0  12.0     N   2.00  24.0     N   39.2   45.1   38.8   36.4  29.958  0.02  0.73    34     0.49     62     0.0  0.00   0.0   0.135   0.000   67.9    43   44.6   65.8   8.25  .0746    0.000   212    5    100.0   10 
 2/20/19  8:20a   44.6   45.4   44.6    79   38.5   7.0   NNE   1.17  14.0    NE   40.7   44.4   40.5   39.3  29.955  0.00  0.06    24     0.34     40     0.0  0.00   0.0   0.142   0.000   67.9    43   44.6   65.8   8.25  .0746    0.000   212    5    100.0   10 
 2/20/19  8:30a   43.6   44.6   43.6    79   37.5   4.0   ENE   0.67  11.0     E   41.5   43.3   41.2   40.8  29.953  0.01  0.06    42     0.60     76     0.0  0.00   0.0   0.149   0.000   67.9    43   44.6   65.8   8.25  .0746    0.000   211    5    100.0   10 
 2/20/19  8:40a   43.3   43.6   43.3    80   37.5   3.0     E   0.50   8.0   ENE   42.1   43.0   41.8   42.7  29.949  0.00  0.04    72     1.03    100     0.0  0.00   0.0   0.151   0.000   67.9    43   44.6   65.8   8.25  .0746    0.000   212    5    100.0   10 
 2/20/19  8:50a   43.1   43.3   43.1    80   37.3   4.0     E   0.67  14.0     E   40.9   42.8   40.6   41.7  29.948  0.00  0.00    79     1.13     97     0.0  0.00   0.0   0.152   0.000   67.9    43   44.6   65.8   8.25  .0745    0.000   213    5    100.0   10 
 2/20/19  9:00a   43.0   43.1   43.0    81   37.6   5.0     E   0.83  10.0     E   40.0   42.7   39.7   42.5  29.947  0.01  0.00   124     1.78    294     0.0  0.00   0.0   0.153   0.000   67.9    43   44.6   65.8   8.25  .0745    0.002   211    5    100.0   10 
 2/20/19  9:10a   43.5   43.5   43.0    82   38.4   2.0     E   0.33   5.0   ENE   43.5   43.3   43.3   47.0  29.942  0.00  0.00   149     2.14    248     0.0  0.00   0.0   0.149   0.000   67.9    43   44.6   65.8   8.25  .0745    0.000   211    5    100.0   10 
 2/20/19  9:20a   43.5   43.7   43.5    81   38.1   2.0   ESE   0.33   9.0   ENE   43.5   43.3   43.3   42.5  29.944  0.00  0.00    37     0.53     95     0.0  0.00   0.0   0.149   0.000   67.9    43   44.6   65.8   8.25  .0745    0.000   214    5    100.0   10 
 2/20/19  9:30a   41.9   43.5   41.9    81   36.5   5.0   ENE   0.83  16.0    NE   38.7   41.6   38.4   36.7  29.951  0.05  0.57    20     0.29     33     0.0  0.00   0.0   0.160   0.000   67.9    43   44.6   65.8   8.25  .0746    0.000   210    5    100.0   10 
 2/20/19  9:40a   41.7   41.9   41.7    82   36.6   3.0   ENE   0.50   8.0   ENE   40.3   41.4   40.0   39.2  29.947  0.02  0.21    41     0.59     47     0.0  0.00   0.0   0.162   0.000   67.9    43   44.6   65.8   8.25  .0745    0.000   210    5    100.0   10 
 2/20/19  9:50a   41.6   41.7   41.5    83   36.8   1.0     E   0.17   3.0   ESE   41.6   41.4   41.4   43.2  29.936  0.00  0.05   107     1.53    232     0.0  0.00   0.0   0.163   0.000   68.0    43   44.7   66.0   8.25  .0745    0.000   214    5    100.0   10 
 2/20/19 10:00a   42.5   42.5   41.6    83   37.7   1.0   ESE   0.17   3.0   ESE   42.5   42.3   42.3   45.0  29.941  0.01  0.05   133     1.91    613     0.0  0.00   0.0   0.156   0.000   68.0    43   44.7   66.0   8.25  .0745    0.002   212    5    100.0   10 
 2/20/19 10:10a   42.4   42.5   42.3    83   37.6   1.0    SE   0.17   4.0     S   42.4   42.2   42.2   42.6  29.936  0.01  0.14    71     1.02     97     0.0  0.00   0.0   0.157   0.000   67.9    43   44.6   65.8   8.25  .0745    0.000   212    5    100.0   10 
 2/20/19 10:20a   42.4   42.4   42.3    84   37.9   1.0   SSE   0.17   4.0   SSE   42.4   42.2   42.2   45.5  29.931  0.01  0.06   154     2.21    223     0.0  0.00   0.0   0.157   0.000   68.0    43   44.7   66.0   8.25  .0745    0.000   212    5    100.0   10 
 2/20/19 10:30a   43.2   43.2   42.4    85   39.0   1.0   SSE   0.17   3.0    SE   43.2   43.1   43.1   46.3  29.929  0.00  0.00   154     2.21    221     0.0  0.00   0.0   0.151   0.000   68.0    43   44.7   66.0   8.25  .0745    0.000   213    5    100.0   10 
 2/20/19 10:40a   43.3   43.3   43.2    84   38.8   0.0   ESE   0.00   2.0   ESE   43.3   43.2   43.2   42.4  29.929  0.01  0.00    44     0.63     70     0.0  0.00   0.0   0.151   0.000   68.0    43   44.7   66.0   8.25  .0745    0.000   214    5    100.0   10 
 2/20/19 10:50a   43.2   43.3   43.2    84   38.7   0.0   ESE   0.00   2.0   ESE   43.2   43.1   43.1   45.0  29.927  0.00  0.00   117     1.68    144     0.0  0.00   0.0   0.151   0.000   68.0    43   44.7   66.0   8.25  .0745    0.000   211    5    100.0   10 
 2/20/19 11:00a   43.5   43.5   43.2    85   39.3   1.0    SE   0.17   3.0   ESE   43.5   43.4   43.4   47.6  29.923  0.00  0.00   189     2.71    568     0.0  0.00   0.0   0.149   0.000   68.0    43   44.7   66.0   8.25  .0745    0.003   212    5    100.0   10 
 2/20/19 11:10a   44.5   44.6   43.6    85   40.3   2.0     S   0.33   6.0     W   44.5   44.4   44.4   53.1  29.921  0.00  0.00   380     5.45    831     0.0  0.00   0.0   0.142   0.000   68.0    43   44.7   66.0   8.25  .0745    0.000   212    5    100.0   10 
 2/20/19 11:20a   43.0   44.6   43.0    82   37.9   7.0     N   1.17  13.0    NE   38.8   42.8   38.6   39.8  29.927  0.02  0.28   101     1.45    137     0.0  0.00   0.0   0.153   0.000   68.0    43   44.7   66.0   8.25  .0745    0.000   211    5    100.0   10 
 2/20/19 11:30a   42.0   42.9   41.8    82   36.9   7.0     N   1.17  12.0   NNW   37.5   41.7   37.2   35.9  29.924  0.04  0.34    33     0.47     54     0.0  0.00   0.0   0.160   0.000   68.0    43   44.7   66.0   8.25  .0745    0.000   211    5    100.0   10 
 2/20/19 11:40a   42.7   42.7   42.0    82   37.6   6.0     N   1.00  10.0     N   38.9   42.5   38.7   37.4  29.922  0.01  0.18    34     0.49     42     0.0  0.00   0.0   0.155   0.000   68.0    43   44.7   66.0   8.25  .0745    0.000   213    5    100.0   10 
 2/20/19 11:50a   43.2   43.3   42.7    82   38.1   5.0     N   0.83  10.0    NW   40.2   43.0   40.0   39.1  29.920  0.01  0.09    44     0.63     62     0.0  0.00   0.0   0.151   0.000   68.0    43   44.7   66.0   8.25  .0745    0.000   212    5    100.0   10 
 2/20/19 12:00p   43.5   43.5   42.8    82   38.4   8.0     N   1.33  16.0   NNE   38.8   43.3   38.6   42.8  29.914  0.00  0.04   204     2.92    308     0.0  0.00   0.0   0.149   0.000   68.0    43   44.7   66.0   8.25  .0744    0.003   210    5    100.0   10 
 2/20/19 12:10p   44.3   44.3   43.6    82   39.2   4.0     N   0.67   8.0   NNW   42.3   44.1   42.1   47.9  29.908  0.00  0.00   248     3.56    287     0.0  0.00   0.0   0.144   0.000   68.1    43   44.7   66.1   8.25  .0744    0.000   211    5    100.0   10 
 2/20/19 12:20p   44.9   44.9   44.3    83   40.0   3.0     N   0.50   5.0     N   43.9   44.8   43.8   52.3  29.904  0.00  0.00   364     5.22    482     0.0  0.00   0.0   0.140   0.000   68.1    43   44.7   66.1   8.25  .0744    0.000   211    5    100.0   10 
 2/20/19 12:30p   46.0   46.0   44.9    84   41.4   1.0    NE   0.17   5.0    NE   46.0   46.0   46.0   54.9  29.898  0.00  0.00   423     6.06    506     0.0  0.00   0.0   0.132   0.000   68.2    43   44.8   66.1   8.25  .0744    0.000   212    5    100.0   10 
 2/20/19 12:40p   45.6   46.3   45.6    80   39.8   4.0     N   0.67  10.0     N   43.8   45.4   43.6   51.0  29.892  0.00  0.00   307     4.40    427     0.0  0.00   0.0   0.135   0.000   68.1    43   44.7   66.1   8.25  .0744    0.000   213    5    100.0   10 
 2/20/19 12:50p   45.6   45.6   45.5    80   39.8   4.0     N   0.67   8.0   NNW   43.8   45.4   43.6   44.5  29.884  0.00  0.00    90     1.29    144     0.0  0.00   0.0   0.135   0.000   68.1    43   44.7   66.1   8.25  .0744    0.000   213    5    100.0   10 
 2/20/19  1:00p   44.6   45.7   44.6    79   38.5  11.0     N   1.83  23.0     N   38.5   44.4   38.3   37.6  29.890  0.00  0.00    46     0.66     60     0.0  0.00   0.0   0.142   0.000   68.2    43   44.8   66.1   8.25  .0744    0.005   212    5    100.0   10 
 2/20/19  1:10p   44.2   44.6   43.9    79   38.1  11.0    NW   1.83  22.0    NW   38.0   44.0   37.8   40.1  29.890  0.00  0.00   141     2.02    290     0.0  0.00   0.0   0.144   0.000   68.2    43   44.8   66.1   8.25  .0744    0.000   214    5    100.0   10 
 2/20/19  1:20p   44.7   44.8   44.2    80   38.9   6.0   WNW   1.00  10.0    NW   41.3   44.5   41.1   49.3  29.882  0.00  0.00   376     5.39    635     0.0  0.00   0.0   0.141   0.000   68.2    43   44.8   66.1   8.25  .0743    0.000   212    5    100.0   10 
 2/20/19  1:30p   43.4   45.1   43.4    80   37.6   8.0    NE   1.33  18.0   ENE   38.7   43.1   38.4   41.6  29.890  0.00  0.00   159     2.28    329     0.0  0.00   0.0   0.150   0.000   68.2    43   44.8   66.1   8.25  .0744    0.000   211    5    100.0   10 
 2/20/19  1:40p   42.8   43.3   42.8    81   37.4   5.0     E   0.83  11.0    NE   39.8   42.5   39.5   43.4  29.884  0.01  0.00   173     2.48    218     0.0  0.00   0.0   0.154   0.000   68.2    43   44.8   66.1   8.25  .0743    0.000   213    5    100.0   10 
 2/20/19  1:50p   42.7   42.9   42.7    82   37.6   3.0     E   0.50   7.0     E   41.4   42.5   41.2   42.9  29.882  0.00  0.00   106     1.52    123     0.0  0.00   0.0   0.155   0.000   68.2    43   44.8   66.1   8.25  .0743    0.000   211    5    100.0   10 
 2/20/19  2:00p   42.5   42.8   42.5    83   37.7   5.0   ENE   0.83  13.0   ENE   39.4   42.3   39.2   40.6  29.884  0.00  0.00    95     1.36    158     0.0  0.00   0.0   0.156   0.000   68.3    43   44.9   66.2   8.25  .0743    0.004   212    5    100.0   10 
 2/20/19  2:10p   42.8   42.8   42.4    83   38.0   4.0   ENE   0.67   8.0   ENE   40.6   42.6   40.4   45.9  29.884  0.01  0.00   215     3.08    306     0.0  0.00   0.0   0.154   0.000   68.3    43   44.9   66.2   8.25  .0743    0.000   213    5    100.0   10 
 2/20/19  2:20p   42.9   43.0   42.8    83   38.1   3.0   ENE   0.50   9.0   ENE   41.7   42.7   41.5   44.3  29.882  0.01  0.08   131     1.88    355     0.0  0.00   0.0   0.153   0.000   68.3    43   44.9   66.2   8.25  .0743    0.000   211    5    100.0   10 
 2/20/19  2:30p   42.6   42.9   42.5    83   37.8   1.0   NNE   0.17   3.0   ENE   42.6   42.4   42.4   41.9  29.877  0.00  0.00    46     0.66     49     0.0  0.00   0.0   0.156   0.000   68.3    43   44.9   66.2   8.25  .0743    0.000   210    5    100.0   10 
 2/20/19  2:40p   42.6   42.6   42.5    82   37.5   5.0   NNE   0.83  10.0   NNE   39.5   42.4   39.3   39.5  29.874  0.00  0.00    59     0.85     81     0.0  0.00   0.0   0.156   0.000   68.3    43   44.9   66.2   8.25  .0743    0.000   213    5    100.0   10 
 2/20/19  2:50p   43.1   43.1   42.6    82   38.0   5.0    NW   0.83   9.0   NNE   40.1   42.9   39.9   42.8  29.870  0.00  0.00   128     1.83    174     0.0  0.00   0.0   0.152   0.000   68.4    43   45.0   66.3   8.25  .0743    0.000   210    5    100.0   10 
 2/20/19  3:00p   43.5   43.5   43.1    81   38.1   4.0     N   0.67  10.0    NW   41.3   43.3   41.1   46.4  29.864  0.00  0.00   216     3.10    241     0.0  0.00   0.0   0.149   0.000   68.4    43   45.0   66.3   8.25  .0743    0.003   211    5    100.0   10 
 2/20/19  3:10p   44.0   44.1   43.5    81   38.5   4.0   NNE   0.67   8.0     N   41.9   43.8   41.7   46.8  29.865  0.00  0.00   205     2.94    262     0.0  0.00   0.0   0.146   0.000   68.4    43   45.0   66.3   8.25  .0743    0.000   211    5    100.0   10 
 2/20/19  3:20p   43.9   44.0   43.7    80   38.1   5.0     N   0.83   9.0   NNE   41.1   43.7   40.9   43.6  29.863  0.00  0.00   123     1.76    127     0.0  0.00   0.0   0.147   0.000   68.4    43   45.0   66.3   8.25  .0743    0.000   212    5    100.0   10 
 2/20/19  3:30p   44.3   44.3   43.9    80   38.5   5.0     N   0.83   8.0   NNE   41.5   44.1   41.3   44.6  29.865  0.00  0.00   155     2.22    265     0.0  0.00   0.0   0.144   0.000   68.4    43   45.0   66.3   8.25  .0743    0.000   211    5    100.0   10 
 2/20/19  3:40p   45.3   45.3   44.3    80   39.5   5.0     N   0.83  10.0   NNE   42.7   45.1   42.5   53.1  29.862  0.00  0.00   306     4.39    431     0.0  0.00   0.0   0.137   0.000   68.5    43   45.1   66.4   8.25  .0742    0.000   214    5    100.0   10 
 2/20/19  3:50p   45.9   46.1   45.3    77   39.1   6.0     N   1.00  10.0     N   42.8   45.6   42.5   48.2  29.862  0.00  0.00   429     6.15    517     0.0  0.00   0.0   0.133   0.000   68.5    43   45.1   66.4   8.25  .0742    0.000   212    5    100.0   10 
 2/20/19  4:00p   46.1   46.1   45.9    78   39.6   6.0     N   1.00  11.0   NNW   43.0   45.8   42.7   44.9  29.864  0.00  0.00   269     3.86    345     0.0  0.00   0.0   0.131   0.000   68.5    43   45.1   66.4   8.25  .0742    0.005   212    5    100.0   10 
 2/20/19  4:10p   45.5   46.1   45.5    77   38.7   7.0     N   1.17  13.0   NNE   41.8   45.2   41.5   40.4  29.865  0.00  0.00   119     1.71    153     0.0  0.00   0.0   0.135   0.000   68.5    43   45.1   66.4   8.25  .0742    0.000   210    5    100.0   10 
 2/20/19  4:20p   45.3   45.6   45.2    78   38.8   8.0     N   1.33  13.0   NNE   41.0   45.0   40.7   38.5  29.864  0.00  0.00    60     0.86     97     0.0  0.00   0.0   0.137   0.000   68.4    43   45.0   66.3   8.25  .0743    0.000   211    5    100.0   10 
 2/20/19  4:30p   44.5   45.3   44.5    76   37.4   9.0     N   1.50  15.0   NNW   39.4   44.1   39.0   36.6  29.861  0.00  0.00    49     0.70     62     0.0  0.00   0.0   0.142   0.000   68.4    43   45.0   66.3   8.25  .0742    0.000   212    5    100.0   10 
 2/20/19  4:40p   43.6   44.7   43.6    79   37.5  10.0     N   1.67  17.0     N   37.8   43.3   37.5   34.9  29.861  0.00  0.00    36     0.52     46     0.0  0.00   0.0   0.149   0.000   68.4    43   45.0   66.3   8.25  .0742    0.000   211    5    100.0   10 
 2/20/19  4:50p   43.8   43.8   43.4    79   37.7   8.0     N   1.33  11.0     N   39.2   43.5   38.9   36.4  29.863  0.00  0.00    50     0.72     58     0.0  0.00   0.0   0.147   0.000   68.4    43   45.0   66.3   8.25  .0743    0.000   213    5    100.0   10 
 2/20/19  5:00p   44.1   44.1   43.8    79   38.0   7.0   NNE   1.17  12.0   NNE   40.1   43.9   39.9   37.5  29.861  0.00  0.00    58     0.83     76     0.0  0.00   0.0   0.145   0.000   68.3    43   44.9   66.2   8.25  .0743    0.002   211    5    100.0   10 
 2/20/19  5:10p   44.2   44.3   44.0    78   37.8   6.0   NNE   1.00  11.0    NE   40.7   43.9   40.4   38.2  29.858  0.00  0.00    69     0.99     93     0.0  0.00   0.0   0.144   0.000   68.3    43   44.9   66.2   8.25  .0743    0.000   213    5    100.0   10 
 2/20/19  5:20p   43.9   44.2   43.9    78   37.5   5.0   NNE   0.83  11.0   NNE   41.1   43.6   40.8   37.7  29.858  0.00  0.00    25     0.36     32     0.0  0.00   0.0   0.147   0.000   68.3    43   44.9   66.2   8.25  .0743    0.000   213    5    100.0   10 
 2/20/19  5:30p   44.0   44.0   43.9    78   37.6   5.0    NE   0.83  11.0    NE   41.2   43.7   40.9   37.6  29.856  0.00  0.00    14     0.20     18     0.0  0.00   0.0   0.146   0.000   68.2    43   44.8   66.1   8.25  .0743    0.000   211    5    100.0   10 
 2/20/19  5:40p   43.7   43.9   43.7    78   37.3   4.0   ENE   0.67   9.0   NNE   41.6   43.4   41.3   37.8  29.857  0.00  0.00     9     0.13     11     0.0  0.00   0.0   0.148   0.000   68.2    43   44.8   66.1   8.25  .0743    0.000   211    5    100.0   10 
 2/20/19  5:50p   43.4   43.7   43.4    78   37.0   2.0     E   0.33   4.0    NE   43.4   43.1   43.1   39.5  29.858  0.00  0.00     4     0.06      7     0.0  0.00   0.0   0.150   0.000   68.1    43   44.7   66.1   8.25  .0743    0.000   213    5    100.0   10 
 2/20/19  6:00p   43.1   43.4   43.1    78   36.7   2.0   ENE   0.33   3.0    NE   43.1   42.8   42.8   39.1  29.858  0.00  0.00     0     0.00      0     0.0  0.00   0.0   0.152   0.000   68.1    43   44.7   66.1   8.25  .0743    0.001   211    5    100.0   10 
 2/20/19  6:10p   42.9   43.1   42.8    79   36.8   1.0   ENE   0.17   3.0   ENE   42.9   42.6   42.6   38.9  29.858  0.00  0.00     0     0.00      0     0.0  0.00   0.0   0.153   0.000   68.0    43   44.7   66.0   8.25  .0743    0.000   211    5    100.0   10 
 2/20/19  6:20p   42.6   42.9   42.6    79   36.5   2.0   ENE   0.33   6.0    NE   42.6   42.3   42.3   38.6  29.862  0.00  0.00     0     0.00      0     0.0  0.00   0.0   0.156   0.000   68.0    43   44.7   66.0   8.25  .0743    0.000   212    5    100.0   10 
 2/20/19  6:30p   42.6   42.6   42.5    80   36.9   2.0   ENE   0.33   8.0   ENE   42.6   42.3   42.3   38.6  29.864  0.00  0.00     0     0.00      0     0.0  0.00   0.0   0.156   0.000   68.0    43   44.7   66.0   8.25  .0743    0.000   213    5    100.0   10 
 2/20/19  6:40p   42.8   42.8   42.5    80   37.1   3.0   ENE   0.50  10.0   NNE   41.6   42.5   41.3   37.7  29.866  0.00  0.00     0     0.00      0     0.0  0.00   0.0   0.154   0.000   67.9    43   44.6   65.8   8.25  .0743    0.000   212    5    100.0   10 
 2/20/19  6:50p   42.6   42.8   42.5    80   36.9   2.0     E   0.33   5.0   ENE   42.6   42.3   42.3   38.6  29.867  0.00  0.00     0     0.00      0     0.0  0.00   0.0   0.156   0.000   67.9    43   44.6   65.8   8.25  .0743    0.000   211    5    100.0   10 
 2/20/19  7:00p   42.5   42.5   42.5    80   36.8   2.0     E   0.33   7.0     E   42.5   42.2   42.2   38.5  29.871  0.00  0.00     0     0.00      0     0.0  0.00   0.0   0.156   0.000   67.8    43   44.5   65.7   8.25  .0744    0.000   210    5    100.0   10 
 2/20/19  7:10p   42.6   42.6   42.5    80   36.9   3.0     E   0.50   9.0    NE   41.3   42.3   41.0   37.3  29.871  0.00  0.00     0     0.00      0     0.0  0.00   0.0   0.156   0.000   67.7    43   44.4   65.6   8.25  .0744    0.000   212    5    100.0   10 
 2/20/19  7:20p   42.5   42.6   42.5    80   36.8   3.0     E   0.50   7.0     E   41.2   42.2   40.9   37.2  29.871  0.00  0.00     0     0.00      0     0.0  0.00   0.0   0.156   0.000   67.7    43   44.4   65.6   8.25  .0744    0.000   210    5    100.0   10 
 2/20/19  7:30p   42.7   42.7   42.5    80   37.0   3.0     E   0.50   9.0   ENE   41.4   42.4   41.1   37.4  29.873  0.00  0.00     0     0.00      0     0.0  0.00   0.0   0.155   0.000   67.7    43   44.4   65.6   8.25  .0744    0.000   211    5    100.0   10 
 2/20/19  7:40p   42.7   42.7   42.7    80   37.0   3.0     E   0.50  11.0    NE   41.4   42.4   41.1   37.4  29.879  0.00  0.00     0     0.00      0     0.0  0.00   0.0   0.155   0.000   67.7    43   44.4   65.6   8.25  .0744    0.000   212    5    100.0   10 
 2/20/19  7:50p   42.5   42.8   42.5    80   36.8   3.0   ENE   0.50   8.0     E   41.2   42.2   40.9   37.2  29.881  0.00  0.00     0     0.00      0     0.0  0.00   0.0   0.156   0.000   67.7    43   44.4   65.6   8.25  .0744    0.000   212    5    100.0   10 
 2/20/19  8:00p   41.9   42.5   41.9    79   35.9   2.0     E   0.33   5.0    NE   41.9   41.6   41.6   37.9  29.879  0.00  0.00     0     0.00      0     0.0  0.00   0.0   0.160   0.000   67.7    43   44.4   65.6   8.25  .0744    0.001   212    5    100.0   10 
 2/20/19  8:10p   41.4   42.0   41.4    80   35.7   2.0     E   0.33   7.0   ENE   41.3   41.1   41.0   37.3  29.884  0.00  0.00     0     0.00      0     0.0  0.00   0.0   0.164   0.000   67.7    43   44.4   65.6   8.25  .0744    0.000   212    5    100.0   10 
 2/20/19  8:20p   41.5   41.5   41.4    81   36.1   3.0     E   0.50   6.0     E   40.1   41.2   39.8   36.1  29.885  0.00  0.00     0     0.00      0     0.0  0.00   0.0   0.163   0.000   67.7    43   44.4   65.6   8.25  .0744    0.000   210    5    100.0   10 
 2/20/19  8:30p   41.7   41.8   41.5    81   36.3   4.0     E   0.67  10.0     E   39.3   41.4   39.0   35.3  29.890  0.01  0.00     0     0.00      0     0.0  0.00   0.0   0.162   0.000   67.7    43   44.4   65.6   8.25  .0744    0.000   212    5    100.0   10 
 2/20/19  8:40p   41.3   41.7   41.3    80   35.6   3.0     E   0.50   8.0   ENE   39.8   41.0   39.5   35.8  29.891  0.00  0.00     0     0.00      0     0.0  0.00   0.0   0.165   0.000   67.7    43   44.4   65.6   8.25  .0744    0.000   213    5    100.0   10 
 2/20/19  8:50p   40.9   41.3   40.9    81   35.5   0.0     E   0.00   2.0     E   40.9   40.6   40.6   36.9  29.890  0.00  0.00     0     0.00      0     0.0  0.00   0.0   0.167   0.000   67.7    43   44.4   65.6   8.25  .0744    0.000   213    5    100.0   10 
 2/20/19  9:00p   40.4   40.9   40.4    81   35.0   0.0     E   0.00   1.0     E   40.4   40.1   40.1   36.4  29.890  0.00  0.00     0     0.00      0     0.0  0.00   0.0   0.171   0.000   67.7    43   44.4   65.6   8.25  .0744    0.001   211    5    100.0   10 
 2/20/19  9:10p   39.8   40.3   39.8    81   34.4   0.0     E   0.00   2.0     E   39.8   39.5   39.5   35.7  29.896  0.00  0.00     0     0.00      0     0.0  0.00   0.0   0.175   0.000   67.8    43   44.5   65.7   8.25  .0744    0.000   210    5    100.0   10 
 2/20/19  9:20p   39.5   39.8   39.5    82   34.5   1.0     E   0.17   2.0     E   39.5   39.2   39.2   35.4  29.896  0.00  0.00     0     0.00      0     0.0  0.00   0.0   0.177   0.000   67.8    43   44.5   65.7   8.25  .0744    0.000   213    5    100.0   10 
 2/20/19  9:30p   39.2   39.5   39.2    81   33.9   1.0     E   0.17   2.0     E   39.2   38.9   38.9   35.1  29.900  0.00  0.00     0     0.00      0     0.0  0.00   0.0   0.179   0.000   67.8    43   44.5   65.7   8.25  .0744    0.000   213    5    100.0   10 
 2/20/19  9:40p   39.0   39.2   39.0    82   34.0   2.0   ESE   0.33   7.0     E   38.7   38.7   38.4   34.6  29.904  0.00  0.00     0     0.00      0     0.0  0.00   0.0   0.181   0.000   67.7    43   44.4   65.6   8.25  .0745    0.000   211    5    100.0   10 
 2/20/19  9:50p   38.8   39.0   38.8    82   33.8   4.0   ESE   0.67   7.0   ESE   35.9   38.5   35.6   31.8  29.907  0.00  0.00     0     0.00      0     0.0  0.00   0.0   0.182   0.000   67.7    43   44.4   65.6   8.25  .0745    0.000   212    5    100.0   10 
 2/20/19 10:00p   38.6   38.8   38.6    83   33.9   4.0   ESE   0.67   7.0   ESE   35.7   38.4   35.5   31.7  29.910  0.00  0.00     0     0.00      0     0.0  0.00   0.0   0.183   0.000   67.6    43   44.3   65.5   8.25  .0745    0.001   214    5    100.0   10 
 2/20/19 10:10p   38.3   38.6   38.3    83   33.6   3.0   ESE   0.50   7.0    SE   36.4   38.1   36.2   32.4  29.914  0.00  0.00     0     0.00      0     0.0  0.00   0.0   0.185   0.000   67.6    43   44.3   65.5   8.25  .0745    0.000   212    5    100.0   10 
 2/20/19 10:20p   38.3   38.3   38.3    83   33.6   2.0   ESE   0.33   7.0   ESE   37.9   38.1   37.7   33.9  29.917  0.00  0.00     0     0.00      0     0.0  0.00   0.0   0.185   0.000   67.7    43   44.4   65.6   8.25  .0745    0.000   209    5    100.0   10 
 2/20/19 10:30p   38.1   38.3   38.1    83   33.4   2.0   ESE   0.33   4.0   ESE   37.7   37.9   37.5   33.7  29.920  0.00  0.00     0     0.00      0     0.0  0.00   0.0   0.187   0.000   67.7    43   44.4   65.6   8.25  .0745    0.000   211    5    100.0   10 
 2/20/19 10:40p   37.8   38.1   37.8    84   33.4   2.0     E   0.33   4.0   ESE   37.3   37.6   37.1   33.3  29.921  0.00  0.00     0     0.00      0     0.0  0.00   0.0   0.189   0.000   67.7    43   44.4   65.6   8.25  .0745    0.000   211    5    100.0   10 
 2/20/19 10:50p   37.6   37.8   37.6    83   32.9   2.0   ESE   0.33   4.0   ESE   37.1   37.4   36.9   33.1  29.923  0.00  0.00     0     0.00      0     0.0  0.00   0.0   0.190   0.000   67.7    43   44.4   65.6   8.25  .0745    0.000   210    5    100.0   10 
 2/20/19 11:00p   37.3   37.7   37.3    84   32.9   4.0   ESE   0.67   9.0    SE   34.2   37.1   34.0   30.2  29.925  0.00  0.00     0     0.00      0     0.0  0.00   0.0   0.192   0.000   67.7    43   44.4   65.6   8.25  .0745    0.001   213    5    100.0   10 
 2/20/19 11:10p   37.2   37.3   37.2    84   32.8   5.0   ESE   0.83   9.0     E   33.2   37.0   33.0   29.2  29.927  0.00  0.00     0     0.00      0     0.0  0.00   0.0   0.193   0.000   67.6    43   44.3   65.5   8.25  .0745    0.000   211    5    100.0   10 
 2/20/19 11:20p   37.0   37.3   37.0    85   32.9   6.0   ESE   1.00  11.0   SSE   32.2   36.8   32.0   28.2  29.929  0.00  0.00     0     0.00      0     0.0  0.00   0.0   0.194   0.000   67.6    43   44.3   65.5   8.25  .0746    0.000   210    5    100.0   10 
 2/20/19 11:30p   36.7   37.1   36.7    85   32.6   8.0   ESE   1.33  14.0     E   30.6   36.5   30.4   26.8  29.932  0.00  0.00     0     0.00      0     0.0  0.00   0.0   0.197   0.000   67.5    43   44.2   65.4   8.25  .0746    0.000   213    5    100.0   10 
 2/20/19 11:40p   36.7   36.7   36.6    86   32.9   8.0   ESE   1.33  14.0   SSE   30.6   36.5   30.4   26.8  29.934  0.00  0.00     0     0.00      0     0.0  0.00   0.0   0.197   0.000   67.5    43   44.2   65.4   8.25  .0746    0.000   209    5    100.0   10 
 2/20/19 11:50p   36.6   36.7   36.6    86   32.8   6.0   ESE   1.00  11.0   ESE   31.7   36.4   31.5   27.7  29.937  0.00  0.00     0     0.00      0     0.0  0.00   0.0   0.197   0.000   67.6    43   44.3   65.5   8.25  .0746    0.000   209    5    100.0   10 
 2/21/19 12:00a   36.6   36.6   36.6    86   32.8   6.0   ESE   1.00  10.0   SSE   31.7   36.4   31.5   27.7  29.941  0.00  0.00     0     0.00      0     0.0  0.00   0.0   0.197   0.000   67.5    43   44.2   65.4   8.25  .0746    0.001   212    5    100.0   10 
 2/21/19 12:10a   36.5   36.6   36.5    86   32.7   6.0   ESE   1.00  11.0    SE   31.6   36.3   31.4   27.6  29.945  0.00  0.00     0     0.00      0     0.0  0.00   0.0   0.198   0.000   67.6    43   44.3   65.5   8.25  .0746    0.000   212    5    100.0   10 
 2/21/19 12:20a   36.2   36.5   36.2    86   32.4   6.0   ESE   1.00  12.0   ESE   31.2   36.0   31.0   27.2  29.948  0.00  0.00     0     0.00      0     0.0  0.00   0.0   0.200   0.000   67.6    43   44.3   65.5   8.25  .0746    0.000   209    5    100.0   10 
 2/21/19 12:30a   36.1   36.3   36.0    86   32.3   5.0   ESE   0.83  11.0   ESE   31.9   35.9   31.7   27.9  29.951  0.00  0.00     0     0.00      0     0.0  0.00   0.0   0.201   0.000   67.6    43   44.3   65.5   8.25  .0746    0.000   212    5    100.0   10 
 2/21/19 12:40a   35.8   36.1   35.8    86   32.0   4.0   ESE   0.67   9.0   ESE   32.5   35.6   32.3   28.5  29.955  0.00  0.00     0     0.00      0     0.0  0.00   0.0   0.203   0.000   67.7    43   44.4   65.6   8.25  .0746    0.000   212    5    100.0   10 
 2/21/19 12:50a   35.7   35.9   35.7    86   31.9   3.0   ESE   0.50   7.0    SE   33.5   35.5   33.3   29.4  29.961  0.00  0.00     0     0.00      0     0.0  0.00   0.0   0.203   0.000   67.7    43   44.4   65.6   8.25  .0746    0.000   210    5    100.0   10 
 2/21/19  1:00a   35.6   35.7   35.6    86   31.8   3.0   ESE   0.50   8.0   ESE   33.4   35.4   33.2   29.3  29.963  0.00  0.00     0     0.00      0     0.0  0.00   0.0   0.204   0.000   67.6    43   44.3   65.5   8.25  .0746    0.000   210    5    100.0   10 
 2/21/19  1:10a   35.5   35.7   35.5    86   31.7   1.0    SE   0.17   4.0   ESE   35.5   35.3   35.3   31.4  29.970  0.00  0.00     0     0.00      0     0.0  0.00   0.0   0.205   0.000   67.6    43   44.3   65.5   8.25  .0747    0.000   211    5    100.0   10 
 2/21/19  1:20a   35.2   35.5   35.2    86   31.4   0.0    SE   0.00   2.0    SE   35.2   35.0   35.0   31.1  29.974  0.00  0.00     0     0.00      0     0.0  0.00   0.0   0.207   0.000   67.5    43   44.2   65.4   8.25  .0747    0.000   213    5    100.0   10 
 2/21/19  1:30a   34.8   35.2   34.8    86   31.0   1.0    SE   0.17   2.0    SE   34.8   34.6   34.6   30.7  29.977  0.00  0.00     0     0.00      0     0.0  0.00   0.0   0.210   0.000   67.5    43   44.2   65.4   8.25  .0747    0.000   212    5    100.0   10 
 2/21/19  1:40a   34.6   34.8   34.5    87   31.1   2.0    SE   0.33   6.0   ESE   33.8   34.4   33.6   29.7  29.983  0.00  0.00     0     0.00      0     0.0  0.00   0.0   0.211   0.000   67.5    43   44.2   65.4   8.25  .0747    0.000   212    5    100.0   10 
 2/21/19  1:50a   34.9   34.9   34.6    87   31.4   4.0   ESE   0.67   7.0   ESE   31.4   34.7   31.2   27.3  29.983  0.00  0.00     0     0.00      0     0.0  0.00   0.0   0.209   0.000   67.4    43   44.1   65.3   8.25  .0747    0.000   212    5    100.0   10 
 2/21/19  2:00a   35.0   35.0   34.9    87   31.5   5.0   ESE   0.83   8.0     E   30.6   34.8   30.4   26.5  29.983  0.00  0.00     0     0.00      0     0.0  0.00   0.0   0.208   0.000   67.4    43   44.1   65.3   8.25  .0747    0.000   213    5    100.0   10 
 2/21/19  2:10a   35.3   35.3   35.0    87   31.8   5.0   ESE   0.83   9.0   ENE   31.0   35.1   30.8   26.9  29.984  0.00  0.00     0     0.00      0     0.0  0.00   0.0   0.206   0.000   67.5    43   44.2   65.4   8.25  .0747    0.000   212    5    100.0   10 
 2/21/19  2:20a   35.3   35.4   35.3    87   31.8   4.0   ESE   0.67   7.0     E   31.9   35.1   31.7   27.8  29.990  0.00  0.00     0     0.00      0     0.0  0.00   0.0   0.206   0.000   67.5    43   44.2   65.4   8.25  .0747    0.000   212    5    100.0   10 
 2/21/19  2:30a   35.4   35.5   35.3    87   31.9   4.0   ESE   0.67   7.0     E   32.0   35.2   31.8   27.9  29.994  0.00  0.00     0     0.00      0     0.0  0.00   0.0   0.206   0.000   67.5    43   44.2   65.4   8.25  .0747    0.000   214    5    100.0   10 
 2/21/19  2:40a   35.6   35.6   35.4    87   32.1   5.0   ESE   0.83   8.0    SE   31.3   35.4   31.1   27.3  29.994  0.00  0.00     0     0.00      0     0.0  0.00   0.0   0.204   0.000   67.5    43   44.2   65.4   8.25  .0747    0.000   212    5    100.0   10 
 2/21/19  2:50a   35.8   35.8   35.6    87   32.3   5.0   ESE   0.83   9.0   ESE   31.5   35.6   31.3   27.5  29.997  0.00  0.00     0     0.00      0     0.0  0.00   0.0   0.203   0.000   67.5    42   43.6   65.3   8.10  .0748    0.000   212    5    100.0   10 
 2/21/19  3:00a   35.5   35.8   35.5    87   32.0   5.0   ESE   0.83   9.0   ESE   31.2   35.3   31.0   27.2  30.001  0.00  0.00     0     0.00      0     0.0  0.00   0.0   0.205   0.000   67.5    42   43.6   65.3   8.10  .0748    0.000   212    5    100.0   10 
 2/21/19  3:10a   35.3   35.5   35.2    87   31.8   5.0   ESE   0.83   9.0   SSE   31.0   35.1   30.8   26.9  30.005  0.00  0.00     0     0.00      0     0.0  0.00   0.0   0.206   0.000   67.5    42   43.6   65.3   8.10  .0748    0.000   211    5    100.0   10 
 2/21/19  3:20a   35.1   35.3   35.1    87   31.6   5.0   ESE   0.83   8.0   ESE   30.7   34.9   30.5   26.6  30.007  0.00  0.00     0     0.00      0     0.0  0.00   0.0   0.208   0.000   67.4    42   43.5   65.2   8.10  .0748    0.000   212    5    100.0   10 
 2/21/19  3:30a   35.1   35.2   35.1    87   31.6   4.0   ESE   0.67   8.0     E   31.7   34.9   31.5   27.6  30.008  0.00  0.00     0     0.00      0     0.0  0.00   0.0   0.208   0.000   67.4    42   43.5   65.2   8.10  .0748    0.000   213    5    100.0   10 
 2/21/19  3:40a   35.0   35.1   34.9    87   31.5   5.0   ESE   0.83   9.0    SE   30.6   34.8   30.4   26.5  30.013  0.00  0.00     0     0.00      0     0.0  0.00   0.0   0.208   0.000   67.4    42   43.5   65.2   8.10  .0748    0.000   212    5    100.0   10 
 2/21/19  3:50a   34.9   35.0   34.9    87   31.4   5.0     E   0.83  11.0   ESE   30.5   34.7   30.3   26.4  30.016  0.00  0.00     0     0.00      0     0.0  0.00   0.0   0.209   0.000   67.3    42   43.4   65.1   8.10  .0748    0.000   211    5    100.0   10 
 2/21/19  4:00a   35.0   35.1   34.9    87   31.5   5.0   ESE   0.83   9.0     E   30.6   34.8   30.4   26.5  30.018  0.00  0.00     0     0.00      0     0.0  0.00   0.0   0.208   0.000   67.3    42   43.4   65.1   8.10  .0748    0.000   213    5    100.0   10 
 2/21/19  4:10a   35.1   35.1   34.9    87   31.6   4.0   ESE   0.67   8.0   ENE   31.7   34.9   31.5   27.6  30.021  0.00  0.00     0     0.00      0     0.0  0.00   0.0   0.208   0.000   67.3    42   43.4   65.1   8.10  .0748    0.000   213    5    100.0   10 
 2/21/19  4:20a   35.1   35.2   35.1    87   31.6   3.0   ESE   0.50   7.0     E   32.8   34.9   32.6   28.7  30.026  0.00  0.00     0     0.00      0     0.0  0.00   0.0   0.208   0.000   67.3    42   43.4   65.1   8.10  .0749    0.000   213    5    100.0   10 
 2/21/19  4:30a   35.1   35.1   35.0    87   31.6   2.0    SE   0.33   6.0   SSE   34.4   34.9   34.2   30.3  30.027  0.00  0.00     0     0.00      0     0.0  0.00   0.0   0.208   0.000   67.3    42   43.4   65.1   8.10  .0749    0.000   213    5    100.0   10 
 2/21/19  4:40a   35.1   35.1   35.0    87   31.6   2.0   ESE   0.33   6.0     E   34.4   34.9   34.2   30.3  30.028  0.00  0.00     0     0.00      0     0.0  0.00   0.0   0.208   0.000   67.3    42   43.4   65.1   8.10  .0749    0.000   213    5    100.0   10 
 2/21/19  4:50a   35.0   35.2   35.0    86   31.2   3.0   ESE   0.50   7.0   ESE   32.7   34.8   32.5   28.6  30.031  0.00  0.00     0     0.00      0     0.0  0.00   0.0   0.208   0.000   67.3    42   43.4   65.1   8.10  .0749    0.000   211    5    100.0   10 
 2/21/19  5:00a   35.1   35.2   35.0    86   31.3   2.0   ESE   0.33   6.0     E   34.4   34.9   34.2   30.3  30.033  0.00  0.00     0     0.00      0     0.0  0.00   0.0   0.208   0.000   67.3    42   43.4   65.1   8.10  .0749    0.000   212    5    100.0   10 
 2/21/19  5:10a   34.7   35.1   34.7    86   30.9   2.0   ESE   0.33   4.0   ESE   33.9   34.5   33.7   29.8  30.041  0.00  0.00     0     0.00      0     0.0  0.00   0.0   0.210   0.000   67.3    42   43.4   65.1   8.10  .0749    0.000   211    5    100.0   10 
 2/21/19  5:20a   34.2   34.7   34.2    86   30.4   1.0    SE   0.17   3.0    SE   34.2   33.9   33.9   30.0  30.049  0.00  0.00     0     0.00      0     0.0  0.00   0.0   0.214   0.000   67.3    42   43.4   65.1   8.10  .0749    0.000   209    5    100.0   10 
 2/21/19  5:30a   33.9   34.2   33.9    86   30.2   1.0    SE   0.17   3.0    SE   33.9   33.6   33.6   29.7  30.052  0.00  0.00     0     0.00      0     0.0  0.00   0.0   0.216   0.000   67.3    42   43.4   65.1   8.10  .0749    0.000   211    5    100.0   10 
 2/21/19  5:40a   33.8   33.9   33.8    86   30.1   1.0    SE   0.17   2.0    SE   33.8   33.5   33.5   29.6  30.055  0.00  0.00     0     0.00      0     0.0  0.00   0.0   0.217   0.000   67.3    42   43.4   65.1   8.10  .0749    0.000   212    5    100.0   10 
 2/21/19  5:50a   33.6   33.8   33.6    87   30.1   2.0    SE   0.33   3.0    SE   32.7   33.4   32.5   28.6  30.057  0.00  0.00     0     0.00      0     0.0  0.00   0.0   0.218   0.000   67.2    42   43.3   65.0   8.11  .0750    0.000   212    5    100.0   10 
 2/21/19  6:00a   33.9   34.0   33.7    87   30.4   3.0   ESE   0.50   6.0   ESE   31.5   33.6   31.2   27.3  30.060  0.00  0.00     0     0.00      0     0.0  0.00   0.0   0.216   0.000   67.1    42   43.2   64.8   8.11  .0750    0.000   213    5    100.0   10 
 2/21/19  6:10a   34.2   34.2   33.9    87   30.7   4.0   ESE   0.67   7.0     E   30.6   34.0   30.4   26.5  30.063  0.00  0.00     0     0.00      0     0.0  0.00   0.0   0.214   0.000   67.1    42   43.2   64.8   8.11  .0750    0.000   212    5    100.0   10 
 2/21/19  6:20a   34.3   34.3   34.2    87   30.8   4.0   ESE   0.67   8.0   ESE   30.7   34.1   30.5   26.6  30.065  0.00  0.00     0     0.00      0     0.0  0.00   0.0   0.213   0.000   67.1    42   43.2   64.8   8.11  .0750    0.000   212    5    100.0   10 
 2/21/19  6:30a   34.4   34.4   34.3    87   30.9   5.0   ESE   0.83   8.0   ESE   29.9   34.2   29.7   25.8  30.064  0.00  0.00     0     0.00      0     0.0  0.00   0.0   0.212   0.000   67.0    42   43.1   64.7   8.11  .0750    0.000   208    5    100.0   10 
 2/21/19  6:40a   34.4   34.5   34.4    87   30.9   5.0   ESE   0.83   8.0   ESE   29.9   34.2   29.7   25.8  30.065  0.00  0.00     0     0.00      0     0.0  0.00   0.0   0.212   0.000   67.0    42   43.1   64.7   8.11  .0750    0.000   212    5    100.0   10 
 2/21/19  6:50a   34.4   34.4   34.3    87   30.9   5.0     E   0.83   8.0     E   29.9   34.2   29.7   25.8  30.067  0.00  0.00     0     0.00      0     0.0  0.00   0.0   0.212   0.000   67.0    42   43.1   64.7   8.11  .0750    0.000   209    5    100.0   10 
 2/21/19  7:00a   34.4   34.4   34.4    87   30.9   5.0   ESE   0.83   8.0   ESE   29.9   34.2   29.7   25.8  30.072  0.00  0.00     0     0.00      0     0.0  0.00   0.0   0.212   0.000   66.9    42   43.0   64.6   8.11  .0750    0.000   211    5    100.0   10 
 2/21/19  7:10a   34.2   34.4   34.2    87   30.7   4.0   ESE   0.67   7.0     E   30.6   34.0   30.4   26.6  30.073  0.00  0.00     5     0.07      7     0.0  0.00   0.0   0.214   0.000   66.9    42   43.0   64.6   8.11  .0750    0.000   210    5    100.0   10 
 2/21/19  7:20a   34.4   34.4   34.2    87   30.9   5.0   ESE   0.83   7.0     E   29.9   34.2   29.7   26.0  30.079  0.00  0.00    10     0.14     12     0.0  0.00   0.0   0.212   0.000   66.9    42   43.0   64.6   8.11  .0751    0.000   209    5    100.0   10 
 2/21/19  7:30a   34.6   34.6   34.4    87   31.1   4.0   ESE   0.67   8.0   ESE   31.1   34.4   30.9   27.3  30.084  0.00  0.00    14     0.20     16     0.0  0.00   0.0   0.211   0.000   66.9    42   43.0   64.6   8.11  .0751    0.000   211    5    100.0   10 
 2/21/19  7:40a   34.5   34.6   34.5    87   31.0   3.0   ESE   0.50   7.0     E   32.1   34.3   31.9   28.4  30.089  0.00  0.00    19     0.27     21     0.0  0.00   0.0   0.212   0.000   66.9    42   43.0   64.6   8.11  .0751    0.000   213    5    100.0   10 
 2/21/19  7:50a   34.4   34.5   34.4    87   30.9   3.0   ESE   0.50   7.0   ESE   32.0   34.2   31.8   28.4  30.092  0.00  0.00    23     0.33     25     0.0  0.00   0.0   0.212   0.000   66.9    42   43.0   64.6   8.11  .0751    0.000   214    5    100.0   10 
 2/21/19  8:00a   34.2   34.4   34.2    87   30.7   3.0   ESE   0.50   7.0   ESE   31.8   34.0   31.6   28.2  30.096  0.00  0.00    26     0.37     30     0.0  0.00   0.0   0.214   0.000   66.9    42   43.0   64.6   8.11  .0751    0.000   211    5    100.0   10 
Email: AdamSPAM@StormwatchersRetreat.com (To send me email remove the word 'SPAM' from my email address.)